x

N01 - Northeast Channel (44024) Wave Buoy

12:04am - Thu 1st Sep 2016 All times are ADT. -3 hours from GMT.

  • Sig Wave height 3.6ft
  • Peak Period 11s
  • Wind
    13mph, 16mph gusts
  • Sea Temp 65°f
  • Air Temp 67°f
  • Sea Pressure 1012.1mb
  • N01 - Northeast Channel
  • N01 - Northeast Channel

More Historic Weather Station data

Upgrade to MSW Pro to gain access to the past 30 days of data for over 8000 Wavebouys and Weather Stations around the globe.

Join Pro

Comparision Forecast

View Surf forecast
   
Thu 09/01 12:04am 3.5ft 11s 13 16 mph 1012.1mb 65f 67f
Wed 08/31 11:04pm 3.5ft 11s 13 16 mph 1012.1mb 65f 67f
10:04pm 2ft 5s 13 16 mph 1012.1mb 65f 67f
9:04pm 4ft 11s 13 16 mph 1012.1mb 64f 67f
7:04pm 4.5ft 11s 16 18 mph 1012.2mb 66f 67f
6:04pm 2.5ft 4s 16 18 mph 1012.1mb 66f 67f
5:04pm 2.5ft 4s 16 18 mph 1012.6mb 66f 67f
4:04pm 3.5ft 11s 13 16 mph 1013.1mb 66f 67f
3:04pm 4.5ft 11s 11 13 mph 1013.7mb 65f 67f
2:04pm 4ft 11s 11 13 mph 1014mb 65f 67f
1:04pm 3ft 11s 11 13 mph 1014.3mb 65f 66f
12:04pm 4ft 11s 11 13 mph 1015mb 65f 66f
11:04am 4ft 11s 11 13 mph 1015.4mb 65f 66f
10:04am 2.5ft 11s 9 11 mph 1015.6mb 65f 66f
9:04am 2.5ft 11s 9 11 mph 1015.6mb 65f 65f
8:04am 3.5ft 11s 9 11 mph 1015.9mb 65f 65f
7:04am 3ft 11s 9 11 mph 1016.2mb 65f 65f
6:04am 2.5ft 11s 9 11 mph 1016.1mb 65f 65f
5:04am 2.5ft 11s 9 11 mph 1016.4mb 65f 65f
4:04am 2.5ft 11s 9 11 mph 1016.7mb 65f 65f
3:04am 3.5ft 11s 7 9 mph 1016.8mb 65f 65f
2:04am 4ft 11s 9 11 mph 1017mb 64f 65f
1:04am 4.5ft 11s 7 9 mph 1016.9mb 64f 65f
Tue 08/30 11:04pm 3.5ft 11s 7
mph
1017.2mb 65f 65f
10:04pm 3.5ft 11s 4 7 mph 1017.4mb 65f 66f
9:04pm 3ft 11s 4 7 mph 1017.3mb 66f 66f
8:04pm 3ft 11s 7
mph
1016.7mb 66f 66f
7:04pm 3.5ft 11s 9
mph
1016.9mb 66f 66f
6:04pm 2ft 5s 11
mph
1017.3mb 66f 67f
5:04pm 3.5ft 11s 9 11 mph 1017.2mb 67f 68f
4:04pm  -   -  11 13 mph 1017.6mb 66f 67f
3:04pm 4ft 11s 11 13 mph 1018.1mb 66f 67f
2:04pm 4.5ft 11s 11 13 mph 1018.2mb 66f 66f
1:04pm  -   -  9 11 mph 1018.6mb 66f 66f
12:04pm 4.5ft 11s 9
mph
1018.8mb 65f 67f
11:04am 4.5ft 11s 9 11 mph 1018.9mb 66f 65f
10:04am 4.5ft 11s 9 13 mph 1018.7mb 67f 65f
9:04am 3.5ft 11s 9 11 mph 1017.9mb 67f 64f
8:04am 4.5ft 11s 9 11 mph 1017.7mb 65f 64f
7:04am 5ft 11s 7 9 mph 1018mb 65f 64f
6:04am 5.5ft 11s 11 13 mph 1017mb 65f 63f
5:04am 4.5ft 11s 13 16 mph 1016.8mb 65f 63f
4:04am 3.5ft 5s 18 20 mph 1016.4mb 65f 64f
3:04am 4.5ft 5s 20 25 mph 1016.4mb 65f 64f
2:04am 4ft 5s 25 29 mph 1016.1mb 66f 65f
1:04am 3ft 5s 18 22 mph 1015.7mb 66f 65f
12:04am 3.5ft 5s 20 25 mph 1015.3mb 65f 66f
Mon 08/29 11:04pm 4ft 6s 18 25 mph 1015.3mb 66f 67f
10:04pm 5ft 11s 18 20 mph 1014.7mb 66f 68f
9:04pm 3ft 5s 13 18 mph 1013.9mb 66f 68f
8:04pm 5ft 11s 13 18 mph 1013.5mb 66f 68f
7:04pm 3.5ft 5s 16 20 mph 1013.3mb 66f 68f
6:04pm 4ft 5s 18 22 mph 1013.1mb 66f 68f
5:04pm 3.5ft 5s 18 20 mph 1013.4mb 66f 68f
4:04pm 3.5ft 4s 20 25 mph 1013.6mb 66f 68f
3:04pm 2.5ft 4s 18 20 mph 1013.9mb 66f 68f
2:04pm 2ft 4s 18 20 mph 1014.2mb 67f 69f
1:04pm 2.5ft 3s 16 18 mph 1014.9mb 67f 68f
12:04pm 2.5ft 8s 16 18 mph 1015.9mb 67f 68f
11:04am 1.3ft 3s 13 16 mph 1016.4mb 66f 68f
10:04am 1.6ft 6s 13 16 mph 1016.9mb 66f 67f
9:04am  -   -  11
mph
1017.4mb 66f 67f
8:04am 3.5ft 16s 9 11 mph 1017.8mb 66f 67f
7:04am 4.5ft 16s 9 11 mph 1018.1mb 67f 67f
6:04am 1.6ft 5s 4
mph
1018.6mb 66f 66f
5:04am 2.5ft 5s 2 4 mph 1018.9mb 66f 66f
4:04am 2.5ft 5s 7
mph
1019mb 66f 67f
3:04am 2.5ft 5s 7 9 mph 1019.6mb 66f 67f
2:04am 4ft 16s 4 7 mph 1020.2mb 67f 66f
1:04am 4ft 16s 4 7 mph 1020.7mb 67f 66f
12:04am 2.5ft 6s 4 7 mph 1021.3mb 67f 65f
Sun 08/28 11:04pm 4ft 16s 4 7 mph 1021.8mb 66f 65f
10:04pm 2.5ft 6s 7
mph
1022.1mb 66f 65f
9:04pm 3.5ft 16s 7 9 mph 1022.2mb 66f 65f
8:04pm 2ft 6s 7 9 mph 1022.3mb 67f 66f
7:04pm 3.5ft 16s 7 9 mph 1022.4mb 67f 69f
6:04pm 2ft 5s 9 11 mph 1022.8mb 67f 66f
5:04pm 3.5ft 5s 9 11 mph 1023.2mb 66f 66f
4:04pm 2.5ft 5s 9 11 mph 1023.6mb 66f 66f
3:04pm 1.6ft 8s 9 11 mph 1023.9mb 67f 66f
2:04pm 1.6ft 8s 9 11 mph 1024.1mb 66f 66f
1:04pm 1.6ft 8s 9 11 mph 1024.4mb 67f 66f
12:04pm 1.6ft 8s 9 11 mph 1024.5mb 67f 66f
11:04am 1ft 3s 9 11 mph 1024.7mb 66f 65f
10:04am 1.6ft 8s 9 11 mph 1024.4mb 65f 66f
9:04am 1.6ft 8s 9
mph
1024.4mb 65f 66f
8:04am 1.6ft 8s 9 11 mph 1023.9mb 65f 66f
7:04am 1.6ft 11s 9 11 mph 1023.2mb 65f 65f
6:04am 2ft 8s 9 11 mph 1022.9mb 65f 65f
5:04am 2ft 8s 11 13 mph 1022.6mb 65f 66f